sensor_id;sensor_type;location;lat;lon;timestamp;pressure;altitude;pressure_sealevel;temperature;humidity
61484;BME280;47349;55.640;37.692;2023-12-29T14:31:15;97758.25;;;0.37;100.00
61484;BME280;47349;55.640;37.692;2023-12-29T14:34:11;97824.63;;;0.75;100.00
61484;BME280;47349;55.640;37.692;2023-12-29T14:52:07;97794.88;;;0.57;100.00
61484;BME280;47349;55.640;37.692;2023-12-29T21:25:50;97568.28;;;1.28;100.00
61484;BME280;47349;55.640;37.692;2023-12-29T21:28:51;97549.69;;;1.14;100.00
61484;BME280;47349;55.640;37.692;2023-12-29T21:31:40;97551.19;;;1.16;100.00
61484;BME280;47349;55.640;37.692;2023-12-29T21:34:35;97556.28;;;1.10;100.00
61484;BME280;47349;55.640;37.692;2023-12-29T21:37:47;97557.47;;;1.07;100.00
61484;BME280;47349;55.640;37.692;2023-12-29T21:40:29;97543.09;;;1.01;100.00
61484;BME280;47349;55.640;37.692;2023-12-29T21:43:14;97572.44;;;1.15;100.00
61484;BME280;47349;55.640;37.692;2023-12-29T21:46:07;97573.44;;;1.14;100.00
61484;BME280;47349;55.640;37.692;2023-12-29T21:48:55;97556.16;;;1.03;100.00
61484;BME280;47349;55.640;37.692;2023-12-29T21:51:37;97567.50;;;1.12;100.00
61484;BME280;47349;55.640;37.692;2023-12-29T21:54:20;97510.84;;;0.83;100.00
61484;BME280;47349;55.640;37.692;2023-12-29T21:56:48;97539.81;;;0.99;100.00
61484;BME280;47349;55.640;37.692;2023-12-29T21:59:19;97505.22;;;0.86;100.00
61484;BME280;47349;55.640;37.692;2023-12-29T22:01:58;97506.22;;;0.93;100.00
61484;BME280;47349;55.640;37.692;2023-12-29T22:04:35;97517.25;;;0.97;100.00
61484;BME280;47349;55.640;37.692;2023-12-29T22:07:07;97541.13;;;1.12;100.00
61484;BME280;47349;55.640;37.692;2023-12-29T22:09:35;97489.28;;;0.80;100.00
61484;BME280;47349;55.640;37.692;2023-12-29T22:12:09;97503.41;;;0.95;100.00
61484;BME280;47349;55.640;37.692;2023-12-29T22:14:53;97506.03;;;1.03;100.00
61484;BME280;47349;55.640;37.692;2023-12-29T22:17:21;97502.88;;;1.08;100.00
61484;BME280;47349;55.640;37.692;2023-12-29T22:19:50;97508.78;;;1.18;100.00
61484;BME280;47349;55.640;37.692;2023-12-29T22:22:20;97466.78;;;1.00;100.00
61484;BME280;47349;55.640;37.692;2023-12-29T22:24:53;97469.59;;;1.07;100.00
61484;BME280;47349;55.640;37.692;2023-12-29T22:27:35;97465.59;;;1.11;100.00
61484;BME280;47349;55.640;37.692;2023-12-29T22:30:18;97489.63;;;1.24;100.00
61484;BME280;47349;55.640;37.692;2023-12-29T22:33:00;97425.91;;;0.96;100.00
61484;BME280;47349;55.640;37.692;2023-12-29T22:35:32;97458.66;;;1.18;100.00
61484;BME280;47349;55.640;37.692;2023-12-29T22:38:01;97478.25;;;1.23;100.00
61484;BME280;47349;55.640;37.692;2023-12-29T22:40:42;97426.09;;;1.02;100.00
61484;BME280;47349;55.640;37.692;2023-12-29T22:43:27;97410.78;;;0.98;100.00
61484;BME280;47349;55.640;37.692;2023-12-29T22:46:14;97403.84;;;0.97;100.00
61484;BME280;47349;55.640;37.692;2023-12-29T22:49:16;97454.34;;;1.25;100.00
61484;BME280;47349;55.640;37.692;2023-12-29T22:51:58;97434.25;;;1.16;100.00
61484;BME280;47349;55.640;37.692;2023-12-29T22:54:50;97392.44;;;1.05;100.00
61484;BME280;47349;55.640;37.692;2023-12-29T22:57:49;97412.16;;;1.17;100.00
61484;BME280;47349;55.640;37.692;2023-12-29T23:00:44;97374.34;;;0.93;100.00
61484;BME280;47349;55.640;37.692;2023-12-29T23:03:45;97384.19;;;1.08;100.00
61484;BME280;47349;55.640;37.692;2023-12-29T23:06:47;97398.16;;;1.16;100.00
61484;BME280;47349;55.640;37.692;2023-12-29T23:09:31;97419.00;;;1.34;100.00
61484;BME280;47349;55.640;37.692;2023-12-29T23:12:12;97363.59;;;1.03;100.00
61484;BME280;47349;55.640;37.692;2023-12-29T23:15:15;97375.69;;;1.20;100.00
61484;BME280;47349;55.640;37.692;2023-12-29T23:18:17;97378.22;;;1.14;100.00
61484;BME280;47349;55.640;37.692;2023-12-29T23:21:01;97348.81;;;0.94;100.00
61484;BME280;47349;55.640;37.692;2023-12-29T23:23:38;97368.28;;;1.16;100.00
61484;BME280;47349;55.640;37.692;2023-12-29T23:26:22;97362.09;;;1.09;100.00
61484;BME280;47349;55.640;37.692;2023-12-29T23:28:51;97374.88;;;1.20;100.00
61484;BME280;47349;55.640;37.692;2023-12-29T23:31:34;97344.94;;;1.05;100.00
61484;BME280;47349;55.640;37.692;2023-12-29T23:34:14;97373.06;;;1.20;100.00
61484;BME280;47349;55.640;37.692;2023-12-29T23:36:42;97385.22;;;1.29;100.00
61484;BME280;47349;55.640;37.692;2023-12-29T23:39:13;97334.91;;;1.00;100.00
61484;BME280;47349;55.640;37.692;2023-12-29T23:41:44;97358.41;;;1.18;100.00
61484;BME280;47349;55.640;37.692;2023-12-29T23:44:17;97338.47;;;1.15;100.00
61484;BME280;47349;55.640;37.692;2023-12-29T23:46:58;97363.50;;;1.19;100.00
61484;BME280;47349;55.640;37.692;2023-12-29T23:49:27;97331.44;;;1.08;100.00
61484;BME280;47349;55.640;37.692;2023-12-29T23:52:08;97354.25;;;1.23;100.00
61484;BME280;47349;55.640;37.692;2023-12-29T23:54:38;97370.69;;;1.34;100.00
61484;BME280;47349;55.640;37.692;2023-12-29T23:57:07;97309.22;;;1.02;100.00
61484;BME280;47349;55.640;37.692;2023-12-29T23:59:47;97347.56;;;1.13;100.00
